sensor_id;sensor_type;location;lat;lon;timestamp;temperature;humidity
50570;DHT22;36525;49.398;7.614;2023-12-28T00:03:27;7.10;99.90
50570;DHT22;36525;49.398;7.614;2023-12-28T00:05:54;7.20;99.90
50570;DHT22;36525;49.398;7.614;2023-12-28T00:08:20;7.20;99.90
50570;DHT22;36525;49.398;7.614;2023-12-28T00:10:47;7.30;99.90
50570;DHT22;36525;49.398;7.614;2023-12-28T00:13:14;7.40;99.90
50570;DHT22;36525;49.398;7.614;2023-12-28T00:15:41;7.40;99.90
50570;DHT22;36525;49.398;7.614;2023-12-28T00:18:08;7.50;99.90
50570;DHT22;36525;49.398;7.614;2023-12-28T00:20:35;7.50;99.90
50570;DHT22;36525;49.398;7.614;2023-12-28T00:23:05;7.60;99.90
50570;DHT22;36525;49.398;7.614;2023-12-28T00:25:32;7.60;99.90
50570;DHT22;36525;49.398;7.614;2023-12-28T00:27:59;7.70;99.90
50570;DHT22;36525;49.398;7.614;2023-12-28T00:30:26;7.70;99.90
50570;DHT22;36525;49.398;7.614;2023-12-28T00:32:55;7.70;99.90
50570;DHT22;36525;49.398;7.614;2023-12-28T00:35:21;7.60;99.90
50570;DHT22;36525;49.398;7.614;2023-12-28T00:37:48;7.70;99.90
50570;DHT22;36525;49.398;7.614;2023-12-28T00:40:15;7.80;99.90
50570;DHT22;36525;49.398;7.614;2023-12-28T00:42:42;7.70;99.90
50570;DHT22;36525;49.398;7.614;2023-12-28T00:45:09;7.70;99.90
50570;DHT22;36525;49.398;7.614;2023-12-28T00:47:36;7.90;99.90
50570;DHT22;36525;49.398;7.614;2023-12-28T00:50:03;7.90;99.90
50570;DHT22;36525;49.398;7.614;2023-12-28T00:52:32;7.90;99.90
50570;DHT22;36525;49.398;7.614;2023-12-28T00:54:59;8.00;99.90
50570;DHT22;36525;49.398;7.614;2023-12-28T01:04:55;8.10;99.90
50570;DHT22;36525;49.398;7.614;2023-12-28T01:07:22;8.10;99.90
50570;DHT22;36525;49.398;7.614;2023-12-28T01:09:49;8.20;99.90
50570;DHT22;36525;49.398;7.614;2023-12-28T01:12:16;8.20;99.90
50570;DHT22;36525;49.398;7.614;2023-12-28T01:14:43;8.30;99.90
50570;DHT22;36525;49.398;7.614;2023-12-28T01:17:10;8.30;99.90
50570;DHT22;36525;49.398;7.614;2023-12-28T01:19:37;8.40;99.90
50570;DHT22;36525;49.398;7.614;2023-12-28T01:22:04;8.40;99.90
50570;DHT22;36525;49.398;7.614;2023-12-28T01:24:31;8.40;99.90
50570;DHT22;36525;49.398;7.614;2023-12-28T01:26:58;8.40;99.90
50570;DHT22;36525;49.398;7.614;2023-12-28T01:29:25;8.40;99.90
50570;DHT22;36525;49.398;7.614;2023-12-28T01:31:55;8.40;99.90
50570;DHT22;36525;49.398;7.614;2023-12-28T01:34:22;8.40;99.90
50570;DHT22;36525;49.398;7.614;2023-12-28T01:36:49;8.50;99.90
50570;DHT22;36525;49.398;7.614;2023-12-28T01:39:19;8.60;99.90
50570;DHT22;36525;49.398;7.614;2023-12-28T01:41:45;8.30;99.90
50570;DHT22;36525;49.398;7.614;2023-12-28T01:44:12;8.10;99.90
50570;DHT22;36525;49.398;7.614;2023-12-28T01:46:39;8.00;99.90
50570;DHT22;36525;49.398;7.614;2023-12-28T01:49:07;7.90;99.90
50570;DHT22;36525;49.398;7.614;2023-12-28T01:51:34;7.90;99.90
50570;DHT22;36525;49.398;7.614;2023-12-28T01:54:01;7.90;99.90
50570;DHT22;36525;49.398;7.614;2023-12-28T01:56:28;7.90;99.90
50570;DHT22;36525;49.398;7.614;2023-12-28T01:58:55;7.80;99.90
50570;DHT22;36525;49.398;7.614;2023-12-28T02:01:22;7.70;99.90
50570;DHT22;36525;49.398;7.614;2023-12-28T02:03:52;7.70;99.90
50570;DHT22;36525;49.398;7.614;2023-12-28T02:06:21;7.50;99.90
50570;DHT22;36525;49.398;7.614;2023-12-28T02:08:50;7.40;99.90
50570;DHT22;36525;49.398;7.614;2023-12-28T02:11:17;7.30;99.90
50570;DHT22;36525;49.398;7.614;2023-12-28T02:13:44;7.30;99.90
50570;DHT22;36525;49.398;7.614;2023-12-28T02:16:24;7.20;99.90
50570;DHT22;36525;49.398;7.614;2023-12-28T02:18:52;7.10;99.90
50570;DHT22;36525;49.398;7.614;2023-12-28T02:21:21;7.10;99.90
50570;DHT22;36525;49.398;7.614;2023-12-28T02:23:49;7.10;99.90
50570;DHT22;36525;49.398;7.614;2023-12-28T02:26:16;7.00;99.90
50570;DHT22;36525;49.398;7.614;2023-12-28T02:28:46;6.90;99.90
50570;DHT22;36525;49.398;7.614;2023-12-28T02:31:21;6.90;99.90
50570;DHT22;36525;49.398;7.614;2023-12-28T02:34:03;6.80;99.90
50570;DHT22;36525;49.398;7.614;2023-12-28T02:36:40;6.80;99.90
50570;DHT22;36525;49.398;7.614;2023-12-28T02:39:08;6.80;99.90
50570;DHT22;36525;49.398;7.614;2023-12-28T02:41:38;6.70;99.90
50570;DHT22;36525;49.398;7.614;2023-12-28T02:44:05;6.70;99.90
50570;DHT22;36525;49.398;7.614;2023-12-28T02:46:32;6.70;99.90
50570;DHT22;36525;49.398;7.614;2023-12-28T02:49:01;6.60;99.90
50570;DHT22;36525;49.398;7.614;2023-12-28T02:51:28;6.60;99.90
50570;DHT22;36525;49.398;7.614;2023-12-28T02:53:56;6.60;99.90
50570;DHT22;36525;49.398;7.614;2023-12-28T02:56:22;6.50;99.90
50570;DHT22;36525;49.398;7.614;2023-12-28T02:58:49;6.50;99.90
50570;DHT22;36525;49.398;7.614;2023-12-28T03:01:16;6.40;99.90
50570;DHT22;36525;49.398;7.614;2023-12-28T03:03:43;6.30;99.90
50570;DHT22;36525;49.398;7.614;2023-12-28T03:06:10;6.20;99.90
50570;DHT22;36525;49.398;7.614;2023-12-28T03:08:37;6.20;99.90
50570;DHT22;36525;49.398;7.614;2023-12-28T03:11:04;6.20;99.90
50570;DHT22;36525;49.398;7.614;2023-12-28T03:13:31;6.10;99.90
50570;DHT22;36525;49.398;7.614;2023-12-28T03:15:58;6.20;99.90
50570;DHT22;36525;49.398;7.614;2023-12-28T03:18:26;6.20;99.90
50570;DHT22;36525;49.398;7.614;2023-12-28T03:20:52;6.10;99.90
50570;DHT22;36525;49.398;7.614;2023-12-28T03:23:19;6.10;99.90
50570;DHT22;36525;49.398;7.614;2023-12-28T03:25:46;6.20;99.90
50570;DHT22;36525;49.398;7.614;2023-12-28T03:28:13;6.20;99.90
50570;DHT22;36525;49.398;7.614;2023-12-28T03:30:40;6.20;99.90
50570;DHT22;36525;49.398;7.614;2023-12-28T03:33:07;6.20;99.90
50570;DHT22;36525;49.398;7.614;2023-12-28T03:35:34;6.20;99.90
50570;DHT22;36525;49.398;7.614;2023-12-28T03:38:01;6.20;99.90
50570;DHT22;36525;49.398;7.614;2023-12-28T03:40:28;6.20;99.90
50570;DHT22;36525;49.398;7.614;2023-12-28T03:42:54;6.20;99.90
50570;DHT22;36525;49.398;7.614;2023-12-28T03:45:22;6.30;99.90
50570;DHT22;36525;49.398;7.614;2023-12-28T03:47:49;6.20;99.90
50570;DHT22;36525;49.398;7.614;2023-12-28T03:50:17;6.30;99.90
50570;DHT22;36525;49.398;7.614;2023-12-28T03:52:44;6.20;99.90
50570;DHT22;36525;49.398;7.614;2023-12-28T03:55:11;6.30;99.90
50570;DHT22;36525;49.398;7.614;2023-12-28T03:57:41;6.40;99.90
50570;DHT22;36525;49.398;7.614;2023-12-28T04:00:09;6.40;99.90
50570;DHT22;36525;49.398;7.614;2023-12-28T04:02:36;6.40;99.90
50570;DHT22;36525;49.398;7.614;2023-12-28T04:05:03;6.40;99.90
50570;DHT22;36525;49.398;7.614;2023-12-28T04:07:30;6.40;99.90
50570;DHT22;36525;49.398;7.614;2023-12-28T04:09:57;6.30;99.90
50570;DHT22;36525;49.398;7.614;2023-12-28T04:12:25;6.40;99.90
50570;DHT22;36525;49.398;7.614;2023-12-28T04:14:52;6.40;99.90
50570;DHT22;36525;49.398;7.614;2023-12-28T04:17:19;6.40;99.90
50570;DHT22;36525;49.398;7.614;2023-12-28T04:19:46;6.40;99.90
50570;DHT22;36525;49.398;7.614;2023-12-28T04:22:13;6.50;99.90
50570;DHT22;36525;49.398;7.614;2023-12-28T04:24:40;6.50;99.90
50570;DHT22;36525;49.398;7.614;2023-12-28T04:27:07;6.40;99.90
50570;DHT22;36525;49.398;7.614;2023-12-28T04:29:35;6.50;99.90
50570;DHT22;36525;49.398;7.614;2023-12-28T04:32:02;6.60;99.90
50570;DHT22;36525;49.398;7.614;2023-12-28T04:34:29;6.60;99.90
50570;DHT22;36525;49.398;7.614;2023-12-28T04:36:55;6.60;99.90
50570;DHT22;36525;49.398;7.614;2023-12-28T04:39:22;6.60;99.90
50570;DHT22;36525;49.398;7.614;2023-12-28T04:41:49;6.70;99.90
50570;DHT22;36525;49.398;7.614;2023-12-28T04:44:16;6.70;99.90
50570;DHT22;36525;49.398;7.614;2023-12-28T04:46:42;6.70;99.90
50570;DHT22;36525;49.398;7.614;2023-12-28T04:49:10;6.80;99.90
50570;DHT22;36525;49.398;7.614;2023-12-28T04:51:44;6.80;99.90
50570;DHT22;36525;49.398;7.614;2023-12-28T04:54:11;6.70;99.90
50570;DHT22;36525;49.398;7.614;2023-12-28T04:56:38;6.80;99.90
50570;DHT22;36525;49.398;7.614;2023-12-28T04:59:05;6.80;99.90
50570;DHT22;36525;49.398;7.614;2023-12-28T05:01:32;6.90;99.90
50570;DHT22;36525;49.398;7.614;2023-12-28T05:03:59;6.90;99.90
50570;DHT22;36525;49.398;7.614;2023-12-28T05:06:29;6.90;99.90
50570;DHT22;36525;49.398;7.614;2023-12-28T05:08:56;6.90;99.90
50570;DHT22;36525;49.398;7.614;2023-12-28T05:11:23;6.90;99.90
50570;DHT22;36525;49.398;7.614;2023-12-28T05:13:50;6.90;99.90
50570;DHT22;36525;49.398;7.614;2023-12-28T05:16:16;6.90;99.90
50570;DHT22;36525;49.398;7.614;2023-12-28T05:18:43;6.90;99.90
50570;DHT22;36525;49.398;7.614;2023-12-28T05:21:11;6.90;99.90
50570;DHT22;36525;49.398;7.614;2023-12-28T05:23:38;6.90;99.90
50570;DHT22;36525;49.398;7.614;2023-12-28T05:28:32;7.00;99.90
50570;DHT22;36525;49.398;7.614;2023-12-28T05:30:59;7.00;99.90
50570;DHT22;36525;49.398;7.614;2023-12-28T05:33:26;7.00;99.90
50570;DHT22;36525;49.398;7.614;2023-12-28T05:35:53;7.10;99.90
50570;DHT22;36525;49.398;7.614;2023-12-28T05:38:20;7.10;99.90
50570;DHT22;36525;49.398;7.614;2023-12-28T05:40:47;7.10;99.90
50570;DHT22;36525;49.398;7.614;2023-12-28T05:43:13;7.10;99.90
50570;DHT22;36525;49.398;7.614;2023-12-28T05:45:40;7.00;99.90
50570;DHT22;36525;49.398;7.614;2023-12-28T05:48:07;7.00;99.90
50570;DHT22;36525;49.398;7.614;2023-12-28T05:50:34;7.00;99.90
50570;DHT22;36525;49.398;7.614;2023-12-28T05:53:01;7.00;99.90
50570;DHT22;36525;49.398;7.614;2023-12-28T05:55:29;7.00;99.90
50570;DHT22;36525;49.398;7.614;2023-12-28T05:57:55;7.00;99.90
50570;DHT22;36525;49.398;7.614;2023-12-28T06:00:23;7.00;99.90
50570;DHT22;36525;49.398;7.614;2023-12-28T06:02:50;7.10;99.90
50570;DHT22;36525;49.398;7.614;2023-12-28T06:05:18;7.00;99.90
50570;DHT22;36525;49.398;7.614;2023-12-28T06:07:45;7.00;99.90
50570;DHT22;36525;49.398;7.614;2023-12-28T06:10:12;7.00;99.90
50570;DHT22;36525;49.398;7.614;2023-12-28T06:12:38;7.00;99.90
50570;DHT22;36525;49.398;7.614;2023-12-28T06:15:06;7.10;99.90
50570;DHT22;36525;49.398;7.614;2023-12-28T06:17:33;7.10;99.90
50570;DHT22;36525;49.398;7.614;2023-12-28T06:20:01;7.10;99.90
50570;DHT22;36525;49.398;7.614;2023-12-28T06:22:28;7.10;99.90
50570;DHT22;36525;49.398;7.614;2023-12-28T06:28:43;7.10;99.90
50570;DHT22;36525;49.398;7.614;2023-12-28T06:31:10;7.10;99.90
50570;DHT22;36525;49.398;7.614;2023-12-28T06:33:37;7.20;99.90
50570;DHT22;36525;49.398;7.614;2023-12-28T06:36:06;7.20;99.90
50570;DHT22;36525;49.398;7.614;2023-12-28T06:41:41;7.20;99.90
50570;DHT22;36525;49.398;7.614;2023-12-28T06:44:07;7.20;99.90
50570;DHT22;36525;49.398;7.614;2023-12-28T06:46:35;7.20;99.90
50570;DHT22;36525;49.398;7.614;2023-12-28T06:49:01;7.10;99.90
50570;DHT22;36525;49.398;7.614;2023-12-28T06:51:30;7.20;99.90
50570;DHT22;36525;49.398;7.614;2023-12-28T06:53:58;7.20;99.90
50570;DHT22;36525;49.398;7.614;2023-12-28T06:56:25;7.20;99.90
50570;DHT22;36525;49.398;7.614;2023-12-28T06:58:52;7.10;99.90
50570;DHT22;36525;49.398;7.614;2023-12-28T07:01:19;7.10;99.90
50570;DHT22;36525;49.398;7.614;2023-12-28T07:03:46;7.10;99.90
50570;DHT22;36525;49.398;7.614;2023-12-28T07:06:13;7.10;99.90
50570;DHT22;36525;49.398;7.614;2023-12-28T07:08:40;7.10;99.90
50570;DHT22;36525;49.398;7.614;2023-12-28T07:11:09;7.10;99.90
50570;DHT22;36525;49.398;7.614;2023-12-28T07:13:37;7.10;99.90
50570;DHT22;36525;49.398;7.614;2023-12-28T07:16:03;7.10;99.90
50570;DHT22;36525;49.398;7.614;2023-12-28T07:18:31;7.10;99.90
50570;DHT22;36525;49.398;7.614;2023-12-28T07:21:01;7.10;99.90
50570;DHT22;36525;49.398;7.614;2023-12-28T07:23:28;7.10;99.90
50570;DHT22;36525;49.398;7.614;2023-12-28T07:25:57;7.10;99.90
50570;DHT22;36525;49.398;7.614;2023-12-28T07:28:24;7.10;99.90
50570;DHT22;36525;49.398;7.614;2023-12-28T07:30:51;7.10;99.90
50570;DHT22;36525;49.398;7.614;2023-12-28T07:33:18;7.10;99.90
50570;DHT22;36525;49.398;7.614;2023-12-28T07:35:45;7.10;99.90
50570;DHT22;36525;49.398;7.614;2023-12-28T07:38:12;7.10;99.90
50570;DHT22;36525;49.398;7.614;2023-12-28T07:40:39;7.10;99.90
50570;DHT22;36525;49.398;7.614;2023-12-28T07:43:06;7.10;99.90
50570;DHT22;36525;49.398;7.614;2023-12-28T07:45:33;7.20;99.90
50570;DHT22;36525;49.398;7.614;2023-12-28T07:48:00;7.20;99.90
50570;DHT22;36525;49.398;7.614;2023-12-28T07:50:28;7.20;99.90
50570;DHT22;36525;49.398;7.614;2023-12-28T07:52:54;7.20;99.90
50570;DHT22;36525;49.398;7.614;2023-12-28T07:55:21;7.20;99.90
50570;DHT22;36525;49.398;7.614;2023-12-28T07:57:48;7.20;99.90
50570;DHT22;36525;49.398;7.614;2023-12-28T08:00:15;7.20;99.90
50570;DHT22;36525;49.398;7.614;2023-12-28T08:02:42;7.30;99.90
50570;DHT22;36525;49.398;7.614;2023-12-28T08:05:09;7.30;99.90
50570;DHT22;36525;49.398;7.614;2023-12-28T08:07:36;7.30;99.90
50570;DHT22;36525;49.398;7.614;2023-12-28T08:10:03;7.40;99.90
50570;DHT22;36525;49.398;7.614;2023-12-28T08:12:31;7.30;99.90
50570;DHT22;36525;49.398;7.614;2023-12-28T08:14:58;7.30;99.90
50570;DHT22;36525;49.398;7.614;2023-12-28T08:20:56;7.30;99.90
50570;DHT22;36525;49.398;7.614;2023-12-28T08:23:23;7.30;99.90
50570;DHT22;36525;49.398;7.614;2023-12-28T08:25:50;7.30;99.90
50570;DHT22;36525;49.398;7.614;2023-12-28T08:28:17;7.40;99.90
50570;DHT22;36525;49.398;7.614;2023-12-28T08:30:43;7.40;99.90
50570;DHT22;36525;49.398;7.614;2023-12-28T08:33:11;7.40;99.90
50570;DHT22;36525;49.398;7.614;2023-12-28T08:35:38;7.30;99.90
50570;DHT22;36525;49.398;7.614;2023-12-28T08:38:05;7.30;99.90
50570;DHT22;36525;49.398;7.614;2023-12-28T08:40:33;7.40;99.90
50570;DHT22;36525;49.398;7.614;2023-12-28T08:43:00;7.40;99.90
50570;DHT22;36525;49.398;7.614;2023-12-28T08:45:27;7.30;99.90
50570;DHT22;36525;49.398;7.614;2023-12-28T08:47:54;7.40;99.90
50570;DHT22;36525;49.398;7.614;2023-12-28T08:50:21;7.50;99.90
50570;DHT22;36525;49.398;7.614;2023-12-28T08:52:48;7.50;99.90
50570;DHT22;36525;49.398;7.614;2023-12-28T08:55:15;7.40;99.90
50570;DHT22;36525;49.398;7.614;2023-12-28T09:01:29;7.50;99.90
50570;DHT22;36525;49.398;7.614;2023-12-28T09:03:57;7.50;99.90
50570;DHT22;36525;49.398;7.614;2023-12-28T09:06:25;7.40;99.90
50570;DHT22;36525;49.398;7.614;2023-12-28T09:08:52;7.50;99.90
50570;DHT22;36525;49.398;7.614;2023-12-28T09:11:20;7.40;99.90
50570;DHT22;36525;49.398;7.614;2023-12-28T09:13:47;7.50;99.90
50570;DHT22;36525;49.398;7.614;2023-12-28T09:16:14;7.40;99.90
50570;DHT22;36525;49.398;7.614;2023-12-28T09:18:41;7.50;99.90
50570;DHT22;36525;49.398;7.614;2023-12-28T09:21:09;7.50;99.90
50570;DHT22;36525;49.398;7.614;2023-12-28T09:23:36;7.50;99.90
50570;DHT22;36525;49.398;7.614;2023-12-28T09:26:04;7.50;99.90
50570;DHT22;36525;49.398;7.614;2023-12-28T09:28:32;7.60;99.90
50570;DHT22;36525;49.398;7.614;2023-12-28T09:31:00;7.60;99.90
50570;DHT22;36525;49.398;7.614;2023-12-28T09:33:30;7.60;99.90
50570;DHT22;36525;49.398;7.614;2023-12-28T09:35:57;7.60;99.90
50570;DHT22;36525;49.398;7.614;2023-12-28T09:38:25;7.70;99.90
50570;DHT22;36525;49.398;7.614;2023-12-28T09:40:54;7.70;99.90
50570;DHT22;36525;49.398;7.614;2023-12-28T09:43:23;7.70;99.90
50570;DHT22;36525;49.398;7.614;2023-12-28T09:45:51;7.70;99.90
50570;DHT22;36525;49.398;7.614;2023-12-28T09:48:19;7.70;99.90
50570;DHT22;36525;49.398;7.614;2023-12-28T09:50:49;7.70;99.90
50570;DHT22;36525;49.398;7.614;2023-12-28T09:53:17;7.70;99.90
50570;DHT22;36525;49.398;7.614;2023-12-28T09:55:44;7.70;99.90
50570;DHT22;36525;49.398;7.614;2023-12-28T09:58:12;7.80;99.90
50570;DHT22;36525;49.398;7.614;2023-12-28T10:00:43;7.70;99.90
50570;DHT22;36525;49.398;7.614;2023-12-28T10:03:12;7.70;99.90
50570;DHT22;36525;49.398;7.614;2023-12-28T10:05:42;7.70;99.90
50570;DHT22;36525;49.398;7.614;2023-12-28T10:08:13;7.80;99.90
50570;DHT22;36525;49.398;7.614;2023-12-28T10:10:42;7.80;99.90
50570;DHT22;36525;49.398;7.614;2023-12-28T10:13:10;7.80;99.90
50570;DHT22;36525;49.398;7.614;2023-12-28T10:15:38;7.80;99.90
50570;DHT22;36525;49.398;7.614;2023-12-28T10:18:05;7.70;99.90
50570;DHT22;36525;49.398;7.614;2023-12-28T10:23:38;7.80;99.90
50570;DHT22;36525;49.398;7.614;2023-12-28T10:26:05;7.80;99.90
50570;DHT22;36525;49.398;7.614;2023-12-28T10:28:33;7.90;99.90
50570;DHT22;36525;49.398;7.614;2023-12-28T10:31:01;7.80;99.90
50570;DHT22;36525;49.398;7.614;2023-12-28T10:33:33;7.80;99.90
50570;DHT22;36525;49.398;7.614;2023-12-28T10:36:05;7.80;99.90
50570;DHT22;36525;49.398;7.614;2023-12-28T10:38:37;7.90;99.90
50570;DHT22;36525;49.398;7.614;2023-12-28T10:41:07;8.00;99.90
50570;DHT22;36525;49.398;7.614;2023-12-28T10:46:40;7.90;99.90
50570;DHT22;36525;49.398;7.614;2023-12-28T10:49:10;7.90;99.90
50570;DHT22;36525;49.398;7.614;2023-12-28T10:51:40;7.90;99.90
50570;DHT22;36525;49.398;7.614;2023-12-28T10:56:46;7.90;99.90
50570;DHT22;36525;49.398;7.614;2023-12-28T10:59:37;7.90;99.90
50570;DHT22;36525;49.398;7.614;2023-12-28T11:02:18;7.90;99.90
50570;DHT22;36525;49.398;7.614;2023-12-28T11:04:48;7.90;99.90
50570;DHT22;36525;49.398;7.614;2023-12-28T11:07:19;7.90;99.90
50570;DHT22;36525;49.398;7.614;2023-12-28T11:09:47;8.00;99.90
50570;DHT22;36525;49.398;7.614;2023-12-28T11:12:15;7.90;99.90
50570;DHT22;36525;49.398;7.614;2023-12-28T11:14:45;7.90;99.90
50570;DHT22;36525;49.398;7.614;2023-12-28T11:17:14;7.90;99.90
50570;DHT22;36525;49.398;7.614;2023-12-28T11:19:43;7.80;99.90
50570;DHT22;36525;49.398;7.614;2023-12-28T11:22:10;7.80;99.90
50570;DHT22;36525;49.398;7.614;2023-12-28T11:24:37;7.70;99.90
50570;DHT22;36525;49.398;7.614;2023-12-28T11:27:04;7.70;99.90
50570;DHT22;36525;49.398;7.614;2023-12-28T11:29:36;7.70;99.90
50570;DHT22;36525;49.398;7.614;2023-12-28T11:32:03;7.70;99.90
50570;DHT22;36525;49.398;7.614;2023-12-28T11:34:31;7.70;99.90
50570;DHT22;36525;49.398;7.614;2023-12-28T11:37:03;7.70;99.90
50570;DHT22;36525;49.398;7.614;2023-12-28T11:39:33;7.70;99.90
50570;DHT22;36525;49.398;7.614;2023-12-28T11:42:07;7.80;99.90
50570;DHT22;36525;49.398;7.614;2023-12-28T11:44:39;7.70;99.90
50570;DHT22;36525;49.398;7.614;2023-12-28T11:47:13;7.70;99.90
50570;DHT22;36525;49.398;7.614;2023-12-28T11:49:50;7.70;99.90
50570;DHT22;36525;49.398;7.614;2023-12-28T11:52:30;7.70;99.90
50570;DHT22;36525;49.398;7.614;2023-12-28T11:54:58;7.80;99.90
50570;DHT22;36525;49.398;7.614;2023-12-28T11:57:26;7.80;99.90
50570;DHT22;36525;49.398;7.614;2023-12-28T11:59:54;7.80;99.90
50570;DHT22;36525;49.398;7.614;2023-12-28T12:02:22;7.80;99.90
50570;DHT22;36525;49.398;7.614;2023-12-28T12:04:50;7.80;99.90
50570;DHT22;36525;49.398;7.614;2023-12-28T12:07:21;7.80;99.90
50570;DHT22;36525;49.398;7.614;2023-12-28T12:09:47;7.80;99.90
50570;DHT22;36525;49.398;7.614;2023-12-28T12:12:15;7.80;99.90
50570;DHT22;36525;49.398;7.614;2023-12-28T12:14:42;7.70;99.90
50570;DHT22;36525;49.398;7.614;2023-12-28T12:17:09;7.70;99.90
50570;DHT22;36525;49.398;7.614;2023-12-28T12:19:36;7.80;99.90
50570;DHT22;36525;49.398;7.614;2023-12-28T12:22:04;7.70;99.90
50570;DHT22;36525;49.398;7.614;2023-12-28T12:24:31;7.70;99.90
50570;DHT22;36525;49.398;7.614;2023-12-28T12:26:58;7.70;99.90
50570;DHT22;36525;49.398;7.614;2023-12-28T12:29:31;7.70;99.90
50570;DHT22;36525;49.398;7.614;2023-12-28T12:31:58;7.80;99.90
50570;DHT22;36525;49.398;7.614;2023-12-28T12:34:25;7.70;99.90
50570;DHT22;36525;49.398;7.614;2023-12-28T12:36:52;7.80;99.90
50570;DHT22;36525;49.398;7.614;2023-12-28T12:39:24;7.80;99.90
50570;DHT22;36525;49.398;7.614;2023-12-28T12:41:52;7.80;99.90
50570;DHT22;36525;49.398;7.614;2023-12-28T12:44:19;7.80;99.90
50570;DHT22;36525;49.398;7.614;2023-12-28T12:46:47;7.70;99.90
50570;DHT22;36525;49.398;7.614;2023-12-28T12:49:15;7.80;99.90
50570;DHT22;36525;49.398;7.614;2023-12-28T12:51:45;7.80;99.90
50570;DHT22;36525;49.398;7.614;2023-12-28T12:54:12;7.80;99.90
50570;DHT22;36525;49.398;7.614;2023-12-28T12:56:38;7.80;99.90
50570;DHT22;36525;49.398;7.614;2023-12-28T12:59:11;7.80;99.90
50570;DHT22;36525;49.398;7.614;2023-12-28T13:01:44;7.80;99.90
50570;DHT22;36525;49.398;7.614;2023-12-28T13:04:12;7.80;99.90
50570;DHT22;36525;49.398;7.614;2023-12-28T13:06:39;7.80;99.90
50570;DHT22;36525;49.398;7.614;2023-12-28T13:09:05;7.90;99.90
50570;DHT22;36525;49.398;7.614;2023-12-28T13:11:34;7.90;99.90
50570;DHT22;36525;49.398;7.614;2023-12-28T13:14:01;7.90;99.90
50570;DHT22;36525;49.398;7.614;2023-12-28T13:16:28;7.80;99.90
50570;DHT22;36525;49.398;7.614;2023-12-28T13:18:55;7.80;99.90
50570;DHT22;36525;49.398;7.614;2023-12-28T13:21:22;7.80;99.90
50570;DHT22;36525;49.398;7.614;2023-12-28T13:23:49;7.80;99.90
50570;DHT22;36525;49.398;7.614;2023-12-28T13:26:16;7.80;99.90
50570;DHT22;36525;49.398;7.614;2023-12-28T13:28:43;7.80;99.90
50570;DHT22;36525;49.398;7.614;2023-12-28T13:31:10;7.90;99.90
50570;DHT22;36525;49.398;7.614;2023-12-28T13:33:37;7.90;99.90
50570;DHT22;36525;49.398;7.614;2023-12-28T13:36:04;8.00;99.90
50570;DHT22;36525;49.398;7.614;2023-12-28T13:38:31;8.00;99.90
50570;DHT22;36525;49.398;7.614;2023-12-28T13:40:58;8.10;99.90
50570;DHT22;36525;49.398;7.614;2023-12-28T13:43:25;8.00;99.90
50570;DHT22;36525;49.398;7.614;2023-12-28T13:45:52;8.10;99.90
50570;DHT22;36525;49.398;7.614;2023-12-28T13:48:19;8.00;99.90
50570;DHT22;36525;49.398;7.614;2023-12-28T13:50:46;8.10;99.90
50570;DHT22;36525;49.398;7.614;2023-12-28T13:57:00;8.00;99.90
50570;DHT22;36525;49.398;7.614;2023-12-28T13:59:27;8.00;99.90
50570;DHT22;36525;49.398;7.614;2023-12-28T14:01:54;8.10;99.90
50570;DHT22;36525;49.398;7.614;2023-12-28T14:04:21;8.10;99.90
50570;DHT22;36525;49.398;7.614;2023-12-28T14:06:48;8.10;99.90
50570;DHT22;36525;49.398;7.614;2023-12-28T14:16:27;8.10;99.90
50570;DHT22;36525;49.398;7.614;2023-12-28T14:18:54;8.10;99.90
50570;DHT22;36525;49.398;7.614;2023-12-28T14:21:22;8.10;99.90
50570;DHT22;36525;49.398;7.614;2023-12-28T14:23:49;8.20;99.90
50570;DHT22;36525;49.398;7.614;2023-12-28T14:26:18;8.10;99.90
50570;DHT22;36525;49.398;7.614;2023-12-28T14:28:45;8.20;99.90
50570;DHT22;36525;49.398;7.614;2023-12-28T14:31:12;8.20;99.90
50570;DHT22;36525;49.398;7.614;2023-12-28T14:33:40;8.20;99.90
50570;DHT22;36525;49.398;7.614;2023-12-28T14:36:26;8.20;99.90
50570;DHT22;36525;49.398;7.614;2023-12-28T14:38:56;8.20;99.90
50570;DHT22;36525;49.398;7.614;2023-12-28T14:41:22;8.20;99.90
50570;DHT22;36525;49.398;7.614;2023-12-28T14:43:49;8.10;99.90
50570;DHT22;36525;49.398;7.614;2023-12-28T14:46:16;8.10;99.90
50570;DHT22;36525;49.398;7.614;2023-12-28T14:48:43;8.10;99.90
50570;DHT22;36525;49.398;7.614;2023-12-28T14:51:10;8.20;99.90
50570;DHT22;36525;49.398;7.614;2023-12-28T14:53:37;8.20;99.90
50570;DHT22;36525;49.398;7.614;2023-12-28T14:56:04;8.10;99.90
50570;DHT22;36525;49.398;7.614;2023-12-28T14:58:31;8.10;99.90
50570;DHT22;36525;49.398;7.614;2023-12-28T15:00:57;8.10;99.90
50570;DHT22;36525;49.398;7.614;2023-12-28T15:03:27;8.10;99.90
50570;DHT22;36525;49.398;7.614;2023-12-28T15:05:54;8.10;99.90
50570;DHT22;36525;49.398;7.614;2023-12-28T15:08:24;8.20;99.90
50570;DHT22;36525;49.398;7.614;2023-12-28T15:10:52;8.10;99.90
50570;DHT22;36525;49.398;7.614;2023-12-28T15:13:19;8.10;99.90
50570;DHT22;36525;49.398;7.614;2023-12-28T15:15:46;8.10;99.90
50570;DHT22;36525;49.398;7.614;2023-12-28T15:18:15;8.10;99.90
50570;DHT22;36525;49.398;7.614;2023-12-28T15:20:45;8.10;99.90
50570;DHT22;36525;49.398;7.614;2023-12-28T15:23:13;8.00;99.90
50570;DHT22;36525;49.398;7.614;2023-12-28T15:25:43;8.10;99.90
50570;DHT22;36525;49.398;7.614;2023-12-28T15:28:10;8.10;99.90
50570;DHT22;36525;49.398;7.614;2023-12-28T15:30:37;8.10;99.90
50570;DHT22;36525;49.398;7.614;2023-12-28T15:33:05;8.00;99.90
50570;DHT22;36525;49.398;7.614;2023-12-28T15:35:32;8.10;99.90
50570;DHT22;36525;49.398;7.614;2023-12-28T15:38:04;8.00;99.90
50570;DHT22;36525;49.398;7.614;2023-12-28T15:40:31;8.00;99.90
50570;DHT22;36525;49.398;7.614;2023-12-28T15:42:58;8.00;99.90
50570;DHT22;36525;49.398;7.614;2023-12-28T15:45:25;7.90;99.90
50570;DHT22;36525;49.398;7.614;2023-12-28T15:48:11;7.90;99.90
50570;DHT22;36525;49.398;7.614;2023-12-28T15:50:38;7.90;99.90
50570;DHT22;36525;49.398;7.614;2023-12-28T15:53:05;7.80;99.90
50570;DHT22;36525;49.398;7.614;2023-12-28T15:55:32;7.90;99.90
50570;DHT22;36525;49.398;7.614;2023-12-28T15:58:01;7.90;99.90
50570;DHT22;36525;49.398;7.614;2023-12-28T16:00:29;7.80;99.90
50570;DHT22;36525;49.398;7.614;2023-12-28T16:02:56;7.80;99.90
50570;DHT22;36525;49.398;7.614;2023-12-28T16:05:23;7.80;99.90
50570;DHT22;36525;49.398;7.614;2023-12-28T16:07:50;7.70;99.90
50570;DHT22;36525;49.398;7.614;2023-12-28T16:10:17;7.80;99.90
50570;DHT22;36525;49.398;7.614;2023-12-28T16:12:43;7.70;99.90
50570;DHT22;36525;49.398;7.614;2023-12-28T16:15:10;7.70;99.90
50570;DHT22;36525;49.398;7.614;2023-12-28T16:17:38;7.60;99.90
50570;DHT22;36525;49.398;7.614;2023-12-28T16:20:05;7.70;99.90
50570;DHT22;36525;49.398;7.614;2023-12-28T16:22:32;7.70;99.90
50570;DHT22;36525;49.398;7.614;2023-12-28T16:24:59;7.70;99.90
50570;DHT22;36525;49.398;7.614;2023-12-28T16:27:28;7.60;99.90
50570;DHT22;36525;49.398;7.614;2023-12-28T16:29:55;7.60;99.90
50570;DHT22;36525;49.398;7.614;2023-12-28T16:32:22;7.70;99.90
50570;DHT22;36525;49.398;7.614;2023-12-28T16:34:49;7.70;99.90